sensor_id;sensor_type;location;lat;lon;timestamp;P1;durP1;ratioP1;P2;durP2;ratioP2
47555;SDS011;33291;46.222;26.460;2023-02-01T00:01:48;10.35;;;5.78;;
47555;SDS011;33291;46.222;26.460;2023-02-01T00:04:14;12.18;;;5.85;;
47555;SDS011;33291;46.222;26.460;2023-02-01T00:06:39;11.30;;;6.30;;
47555;SDS011;33291;46.222;26.460;2023-02-01T00:09:05;8.77;;;5.32;;
47555;SDS011;33291;46.222;26.460;2023-02-01T00:11:31;11.57;;;6.80;;
47555;SDS011;33291;46.222;26.460;2023-02-01T00:13:56;11.00;;;5.15;;
47555;SDS011;33291;46.222;26.460;2023-02-01T00:16:23;10.90;;;5.97;;
47555;SDS011;33291;46.222;26.460;2023-02-01T00:18:51;11.00;;;6.60;;
47555;SDS011;33291;46.222;26.460;2023-02-01T00:21:20;10.65;;;6.68;;
47555;SDS011;33291;46.222;26.460;2023-02-01T00:23:46;10.68;;;6.32;;
47555;SDS011;33291;46.222;26.460;2023-02-01T00:26:16;9.38;;;5.07;;
47555;SDS011;33291;46.222;26.460;2023-02-01T00:28:44;9.68;;;5.43;;
47555;SDS011;33291;46.222;26.460;2023-02-01T00:31:10;9.30;;;5.03;;
47555;SDS011;33291;46.222;26.460;2023-02-01T00:33:36;9.75;;;4.80;;
47555;SDS011;33291;46.222;26.460;2023-02-01T00:36:02;9.68;;;5.55;;
47555;SDS011;33291;46.222;26.460;2023-02-01T00:38:30;7.90;;;4.53;;
47555;SDS011;33291;46.222;26.460;2023-02-01T00:43:49;8.48;;;5.10;;
47555;SDS011;33291;46.222;26.460;2023-02-01T00:46:16;10.50;;;5.25;;
47555;SDS011;33291;46.222;26.460;2023-02-01T00:48:43;7.35;;;4.43;;
47555;SDS011;33291;46.222;26.460;2023-02-01T00:51:11;10.00;;;4.88;;
47555;SDS011;33291;46.222;26.460;2023-02-01T00:53:39;10.07;;;5.45;;
47555;SDS011;33291;46.222;26.460;2023-02-01T00:56:04;54.13;;;16.58;;
47555;SDS011;33291;46.222;26.460;2023-02-01T00:58:31;17.38;;;6.70;;
47555;SDS011;33291;46.222;26.460;2023-02-01T01:03:48;16.55;;;6.97;;
47555;SDS011;33291;46.222;26.460;2023-02-01T01:06:22;13.75;;;6.25;;
47555;SDS011;33291;46.222;26.460;2023-02-01T01:08:53;22.92;;;9.77;;
47555;SDS011;33291;46.222;26.460;2023-02-01T01:11:21;17.67;;;7.25;;
47555;SDS011;33291;46.222;26.460;2023-02-01T01:13:49;10.27;;;5.40;;
47555;SDS011;33291;46.222;26.460;2023-02-01T01:16:16;14.93;;;6.57;;
47555;SDS011;33291;46.222;26.460;2023-02-01T01:18:43;9.90;;;4.60;;
47555;SDS011;33291;46.222;26.460;2023-02-01T01:21:10;13.32;;;5.90;;
47555;SDS011;33291;46.222;26.460;2023-02-01T01:23:37;8.93;;;4.78;;
47555;SDS011;33291;46.222;26.460;2023-02-01T01:26:06;8.85;;;4.90;;
47555;SDS011;33291;46.222;26.460;2023-02-01T01:28:37;10.43;;;5.07;;
47555;SDS011;33291;46.222;26.460;2023-02-01T01:31:03;19.85;;;8.88;;
47555;SDS011;33291;46.222;26.460;2023-02-01T01:33:33;10.68;;;4.97;;
47555;SDS011;33291;46.222;26.460;2023-02-01T01:35:59;9.20;;;4.55;;
47555;SDS011;33291;46.222;26.460;2023-02-01T01:38:24;9.32;;;4.70;;
47555;SDS011;33291;46.222;26.460;2023-02-01T01:40:50;7.47;;;3.88;;
47555;SDS011;33291;46.222;26.460;2023-02-01T01:43:17;8.02;;;5.07;;
47555;SDS011;33291;46.222;26.460;2023-02-01T01:45:44;10.43;;;5.18;;
47555;SDS011;33291;46.222;26.460;2023-02-01T01:48:14;12.75;;;5.43;;
47555;SDS011;33291;46.222;26.460;2023-02-01T01:53:13;9.73;;;5.93;;
47555;SDS011;33291;46.222;26.460;2023-02-01T01:55:43;7.60;;;4.55;;
47555;SDS011;33291;46.222;26.460;2023-02-01T01:58:14;7.07;;;4.55;;
47555;SDS011;33291;46.222;26.460;2023-02-01T02:00:43;6.40;;;3.78;;
47555;SDS011;33291;46.222;26.460;2023-02-01T02:05:47;9.32;;;4.72;;
47555;SDS011;33291;46.222;26.460;2023-02-01T02:08:15;7.93;;;4.10;;
47555;SDS011;33291;46.222;26.460;2023-02-01T02:10:42;7.05;;;3.47;;
47555;SDS011;33291;46.222;26.460;2023-02-01T02:13:27;9.32;;;4.40;;
47555;SDS011;33291;46.222;26.460;2023-02-01T02:21:50;9.85;;;4.75;;
47555;SDS011;33291;46.222;26.460;2023-02-01T02:35:41;9.50;;;4.68;;
47555;SDS011;33291;46.222;26.460;2023-02-01T02:41:13;5.65;;;3.22;;
47555;SDS011;33291;46.222;26.460;2023-02-01T02:44:23;5.40;;;2.53;;
47555;SDS011;33291;46.222;26.460;2023-02-01T02:47:37;9.60;;;4.57;;
47555;SDS011;33291;46.222;26.460;2023-02-01T02:53:34;7.57;;;3.05;;
47555;SDS011;33291;46.222;26.460;2023-02-01T02:56:42;9.20;;;3.17;;
47555;SDS011;33291;46.222;26.460;2023-02-01T02:59:26;6.95;;;3.75;;
47555;SDS011;33291;46.222;26.460;2023-02-01T03:02:12;6.25;;;2.40;;
47555;SDS011;33291;46.222;26.460;2023-02-01T03:04:58;7.28;;;2.65;;
47555;SDS011;33291;46.222;26.460;2023-02-01T03:10:37;6.90;;;2.35;;
47555;SDS011;33291;46.222;26.460;2023-02-01T03:15:57;5.13;;;2.20;;
47555;SDS011;33291;46.222;26.460;2023-02-01T03:21:05;4.72;;;2.00;;
47555;SDS011;33291;46.222;26.460;2023-02-01T03:23:41;4.97;;;2.40;;
47555;SDS011;33291;46.222;26.460;2023-02-01T03:26:10;12.02;;;4.43;;
47555;SDS011;33291;46.222;26.460;2023-02-01T03:28:41;12.57;;;5.90;;
47555;SDS011;33291;46.222;26.460;2023-02-01T03:31:13;11.68;;;3.28;;
47555;SDS011;33291;46.222;26.460;2023-02-01T03:33:39;3.95;;;1.80;;
47555;SDS011;33291;46.222;26.460;2023-02-01T03:44:16;9.57;;;3.40;;
47555;SDS011;33291;46.222;26.460;2023-02-01T03:49:24;12.25;;;4.38;;
47555;SDS011;33291;46.222;26.460;2023-02-01T03:51:54;8.85;;;3.55;;
47555;SDS011;33291;46.222;26.460;2023-02-01T03:54:23;6.97;;;3.17;;
47555;SDS011;33291;46.222;26.460;2023-02-01T03:56:50;6.10;;;1.98;;
47555;SDS011;33291;46.222;26.460;2023-02-01T03:59:19;6.35;;;2.38;;
47555;SDS011;33291;46.222;26.460;2023-02-01T04:01:44;3.50;;;2.40;;
47555;SDS011;33291;46.222;26.460;2023-02-01T04:04:10;7.10;;;2.25;;
47555;SDS011;33291;46.222;26.460;2023-02-01T04:06:45;5.95;;;2.47;;
47555;SDS011;33291;46.222;26.460;2023-02-01T04:09:14;5.70;;;2.50;;
47555;SDS011;33291;46.222;26.460;2023-02-01T04:11:40;3.47;;;1.83;;
47555;SDS011;33291;46.222;26.460;2023-02-01T04:14:06;4.97;;;2.03;;
47555;SDS011;33291;46.222;26.460;2023-02-01T04:16:32;3.63;;;1.52;;
47555;SDS011;33291;46.222;26.460;2023-02-01T04:18:58;7.20;;;2.67;;
47555;SDS011;33291;46.222;26.460;2023-02-01T04:21:24;6.53;;;1.88;;
47555;SDS011;33291;46.222;26.460;2023-02-01T04:23:51;4.57;;;1.88;;
47555;SDS011;33291;46.222;26.460;2023-02-01T04:26:17;4.13;;;1.88;;
47555;SDS011;33291;46.222;26.460;2023-02-01T04:28:43;6.40;;;2.83;;
47555;SDS011;33291;46.222;26.460;2023-02-01T04:31:09;9.60;;;2.25;;
47555;SDS011;33291;46.222;26.460;2023-02-01T04:33:34;5.28;;;2.47;;
47555;SDS011;33291;46.222;26.460;2023-02-01T04:36:00;3.90;;;2.22;;
47555;SDS011;33291;46.222;26.460;2023-02-01T04:38:26;4.72;;;2.22;;
47555;SDS011;33291;46.222;26.460;2023-02-01T04:40:54;7.30;;;1.23;;
47555;SDS011;33291;46.222;26.460;2023-02-01T04:43:19;6.55;;;2.25;;
47555;SDS011;33291;46.222;26.460;2023-02-01T04:45:48;7.00;;;2.35;;
47555;SDS011;33291;46.222;26.460;2023-02-01T04:48:15;6.40;;;2.15;;
47555;SDS011;33291;46.222;26.460;2023-02-01T04:50:42;4.97;;;1.85;;
47555;SDS011;33291;46.222;26.460;2023-02-01T04:53:11;8.90;;;2.80;;
47555;SDS011;33291;46.222;26.460;2023-02-01T04:55:36;2.05;;;1.50;;
47555;SDS011;33291;46.222;26.460;2023-02-01T04:58:01;8.93;;;2.05;;
47555;SDS011;33291;46.222;26.460;2023-02-01T05:00:27;7.13;;;2.28;;
47555;SDS011;33291;46.222;26.460;2023-02-01T05:02:52;4.07;;;1.63;;
47555;SDS011;33291;46.222;26.460;2023-02-01T05:05:18;10.35;;;4.85;;
47555;SDS011;33291;46.222;26.460;2023-02-01T05:07:45;6.00;;;2.13;;
47555;SDS011;33291;46.222;26.460;2023-02-01T05:10:11;7.10;;;3.15;;
47555;SDS011;33291;46.222;26.460;2023-02-01T05:12:37;4.30;;;1.75;;
47555;SDS011;33291;46.222;26.460;2023-02-01T05:17:46;5.53;;;2.08;;
47555;SDS011;33291;46.222;26.460;2023-02-01T05:20:11;4.95;;;2.78;;
47555;SDS011;33291;46.222;26.460;2023-02-01T05:22:37;7.68;;;1.77;;
47555;SDS011;33291;46.222;26.460;2023-02-01T05:25:03;4.82;;;1.80;;
47555;SDS011;33291;46.222;26.460;2023-02-01T05:27:29;5.72;;;2.40;;
47555;SDS011;33291;46.222;26.460;2023-02-01T05:29:55;3.03;;;1.50;;
47555;SDS011;33291;46.222;26.460;2023-02-01T05:32:21;3.85;;;1.85;;
47555;SDS011;33291;46.222;26.460;2023-02-01T05:34:46;9.52;;;3.85;;
47555;SDS011;33291;46.222;26.460;2023-02-01T05:37:12;3.85;;;2.13;;
47555;SDS011;33291;46.222;26.460;2023-02-01T05:39:37;5.82;;;2.20;;
47555;SDS011;33291;46.222;26.460;2023-02-01T05:42:02;6.93;;;2.10;;
47555;SDS011;33291;46.222;26.460;2023-02-01T05:44:28;6.80;;;2.17;;
47555;SDS011;33291;46.222;26.460;2023-02-01T05:46:53;5.15;;;2.95;;
47555;SDS011;33291;46.222;26.460;2023-02-01T05:49:19;4.97;;;2.58;;
47555;SDS011;33291;46.222;26.460;2023-02-01T05:51:45;6.90;;;2.90;;
47555;SDS011;33291;46.222;26.460;2023-02-01T05:54:10;6.85;;;2.38;;
47555;SDS011;33291;46.222;26.460;2023-02-01T05:56:36;8.73;;;2.85;;
47555;SDS011;33291;46.222;26.460;2023-02-01T05:59:01;8.30;;;3.38;;
47555;SDS011;33291;46.222;26.460;2023-02-01T06:01:27;6.38;;;2.83;;
47555;SDS011;33291;46.222;26.460;2023-02-01T06:03:52;11.18;;;3.67;;
47555;SDS011;33291;46.222;26.460;2023-02-01T06:06:18;12.60;;;5.00;;
47555;SDS011;33291;46.222;26.460;2023-02-01T06:08:44;9.18;;;3.58;;
47555;SDS011;33291;46.222;26.460;2023-02-01T06:11:10;3.47;;;2.03;;
47555;SDS011;33291;46.222;26.460;2023-02-01T06:13:36;5.88;;;2.40;;
47555;SDS011;33291;46.222;26.460;2023-02-01T06:16:03;7.35;;;2.88;;
47555;SDS011;33291;46.222;26.460;2023-02-01T06:18:32;4.53;;;1.90;;
47555;SDS011;33291;46.222;26.460;2023-02-01T06:20:58;4.97;;;2.00;;
47555;SDS011;33291;46.222;26.460;2023-02-01T06:23:28;6.55;;;2.17;;
47555;SDS011;33291;46.222;26.460;2023-02-01T06:25:58;3.88;;;1.95;;
47555;SDS011;33291;46.222;26.460;2023-02-01T06:28:25;6.18;;;2.78;;
47555;SDS011;33291;46.222;26.460;2023-02-01T06:30:52;7.50;;;4.13;;
47555;SDS011;33291;46.222;26.460;2023-02-01T06:33:17;6.82;;;1.92;;
47555;SDS011;33291;46.222;26.460;2023-02-01T06:35:43;15.32;;;6.50;;
47555;SDS011;33291;46.222;26.460;2023-02-01T06:38:12;13.73;;;7.68;;
47555;SDS011;33291;46.222;26.460;2023-02-01T06:40:38;20.90;;;10.43;;
47555;SDS011;33291;46.222;26.460;2023-02-01T06:43:06;19.15;;;10.13;;
47555;SDS011;33291;46.222;26.460;2023-02-01T06:45:31;15.40;;;8.38;;
47555;SDS011;33291;46.222;26.460;2023-02-01T06:47:58;17.67;;;10.02;;
47555;SDS011;33291;46.222;26.460;2023-02-01T06:50:24;25.90;;;14.00;;
47555;SDS011;33291;46.222;26.460;2023-02-01T06:52:49;21.50;;;12.05;;
47555;SDS011;33291;46.222;26.460;2023-02-01T06:55:15;20.20;;;11.25;;
47555;SDS011;33291;46.222;26.460;2023-02-01T06:57:41;18.40;;;8.27;;
47555;SDS011;33291;46.222;26.460;2023-02-01T07:00:06;18.23;;;8.98;;
47555;SDS011;33291;46.222;26.460;2023-02-01T07:02:32;16.63;;;9.95;;
47555;SDS011;33291;46.222;26.460;2023-02-01T07:04:58;22.83;;;12.68;;
47555;SDS011;33291;46.222;26.460;2023-02-01T07:07:23;20.55;;;11.85;;
47555;SDS011;33291;46.222;26.460;2023-02-01T07:09:49;21.20;;;11.43;;
47555;SDS011;33291;46.222;26.460;2023-02-01T07:12:15;20.67;;;9.65;;
47555;SDS011;33291;46.222;26.460;2023-02-01T07:14:40;17.55;;;9.82;;
47555;SDS011;33291;46.222;26.460;2023-02-01T07:17:06;39.38;;;19.92;;
47555;SDS011;33291;46.222;26.460;2023-02-01T07:19:32;7.95;;;3.92;;
47555;SDS011;33291;46.222;26.460;2023-02-01T07:21:57;21.38;;;10.52;;
47555;SDS011;33291;46.222;26.460;2023-02-01T07:24:23;28.77;;;13.95;;
47555;SDS011;33291;46.222;26.460;2023-02-01T07:26:48;23.10;;;11.38;;
47555;SDS011;33291;46.222;26.460;2023-02-01T07:29:16;24.98;;;11.43;;
47555;SDS011;33291;46.222;26.460;2023-02-01T07:31:42;32.42;;;15.40;;
47555;SDS011;33291;46.222;26.460;2023-02-01T07:34:07;38.67;;;19.08;;
47555;SDS011;33291;46.222;26.460;2023-02-01T07:36:33;35.53;;;17.25;;
47555;SDS011;33291;46.222;26.460;2023-02-01T07:38:59;24.85;;;12.18;;
47555;SDS011;33291;46.222;26.460;2023-02-01T07:41:25;18.80;;;9.02;;
47555;SDS011;33291;46.222;26.460;2023-02-01T07:43:53;18.48;;;9.10;;
47555;SDS011;33291;46.222;26.460;2023-02-01T07:46:19;16.33;;;7.50;;
47555;SDS011;33291;46.222;26.460;2023-02-01T07:48:45;9.88;;;5.00;;
47555;SDS011;33291;46.222;26.460;2023-02-01T07:51:12;10.88;;;5.80;;
47555;SDS011;33291;46.222;26.460;2023-02-01T07:53:39;10.05;;;5.82;;
47555;SDS011;33291;46.222;26.460;2023-02-01T07:56:09;13.63;;;6.75;;
47555;SDS011;33291;46.222;26.460;2023-02-01T07:58:37;11.27;;;6.53;;
47555;SDS011;33291;46.222;26.460;2023-02-01T08:01:03;8.45;;;3.75;;
47555;SDS011;33291;46.222;26.460;2023-02-01T08:03:53;12.20;;;6.07;;
47555;SDS011;33291;46.222;26.460;2023-02-01T08:06:21;10.23;;;5.18;;
47555;SDS011;33291;46.222;26.460;2023-02-01T08:08:48;47.95;;;21.63;;
47555;SDS011;33291;46.222;26.460;2023-02-01T08:11:16;24.15;;;12.30;;
47555;SDS011;33291;46.222;26.460;2023-02-01T08:13:43;21.63;;;10.13;;
47555;SDS011;33291;46.222;26.460;2023-02-01T08:16:10;12.73;;;6.68;;
47555;SDS011;33291;46.222;26.460;2023-02-01T08:18:37;7.97;;;3.70;;
47555;SDS011;33291;46.222;26.460;2023-02-01T08:21:10;8.10;;;3.90;;
47555;SDS011;33291;46.222;26.460;2023-02-01T08:23:38;6.45;;;3.42;;
47555;SDS011;33291;46.222;26.460;2023-02-01T08:26:09;7.70;;;3.67;;
47555;SDS011;33291;46.222;26.460;2023-02-01T08:28:54;7.65;;;3.30;;
47555;SDS011;33291;46.222;26.460;2023-02-01T08:31:22;7.60;;;3.30;;
47555;SDS011;33291;46.222;26.460;2023-02-01T08:33:53;8.10;;;4.00;;
47555;SDS011;33291;46.222;26.460;2023-02-01T08:36:20;5.72;;;3.38;;
47555;SDS011;33291;46.222;26.460;2023-02-01T08:38:46;5.45;;;2.83;;
47555;SDS011;33291;46.222;26.460;2023-02-01T08:41:16;6.90;;;2.88;;
47555;SDS011;33291;46.222;26.460;2023-02-01T08:43:44;5.93;;;3.25;;
47555;SDS011;33291;46.222;26.460;2023-02-01T08:46:11;13.27;;;8.57;;
47555;SDS011;33291;46.222;26.460;2023-02-01T08:48:37;5.70;;;3.40;;
47555;SDS011;33291;46.222;26.460;2023-02-01T08:51:04;8.20;;;4.20;;
47555;SDS011;33291;46.222;26.460;2023-02-01T08:53:31;7.82;;;3.38;;
47555;SDS011;33291;46.222;26.460;2023-02-01T08:55:57;8.95;;;4.55;;
47555;SDS011;33291;46.222;26.460;2023-02-01T08:58:23;8.15;;;3.72;;
47555;SDS011;33291;46.222;26.460;2023-02-01T09:00:48;7.88;;;3.90;;
47555;SDS011;33291;46.222;26.460;2023-02-01T09:03:14;8.05;;;3.75;;
47555;SDS011;33291;46.222;26.460;2023-02-01T09:05:41;7.45;;;4.00;;
47555;SDS011;33291;46.222;26.460;2023-02-01T09:08:06;5.65;;;3.00;;
47555;SDS011;33291;46.222;26.460;2023-02-01T09:10:33;4.93;;;3.08;;
47555;SDS011;33291;46.222;26.460;2023-02-01T09:12:59;6.75;;;3.13;;
47555;SDS011;33291;46.222;26.460;2023-02-01T09:15:25;5.72;;;3.13;;
47555;SDS011;33291;46.222;26.460;2023-02-01T09:17:50;8.30;;;3.00;;
47555;SDS011;33291;46.222;26.460;2023-02-01T09:20:16;8.27;;;4.47;;
47555;SDS011;33291;46.222;26.460;2023-02-01T09:22:42;5.55;;;3.22;;
47555;SDS011;33291;46.222;26.460;2023-02-01T09:25:07;5.25;;;3.28;;
47555;SDS011;33291;46.222;26.460;2023-02-01T09:27:33;8.77;;;3.50;;
47555;SDS011;33291;46.222;26.460;2023-02-01T09:30:00;10.98;;;7.55;;
47555;SDS011;33291;46.222;26.460;2023-02-01T09:32:25;8.60;;;5.60;;
47555;SDS011;33291;46.222;26.460;2023-02-01T09:34:51;6.65;;;3.35;;
47555;SDS011;33291;46.222;26.460;2023-02-01T09:37:17;5.38;;;3.00;;
47555;SDS011;33291;46.222;26.460;2023-02-01T09:39:43;5.38;;;2.83;;
47555;SDS011;33291;46.222;26.460;2023-02-01T09:45:22;3.33;;;2.22;;
47555;SDS011;33291;46.222;26.460;2023-02-01T09:47:55;5.18;;;3.00;;
47555;SDS011;33291;46.222;26.460;2023-02-01T09:50:34;5.20;;;2.65;;
47555;SDS011;33291;46.222;26.460;2023-02-01T09:53:06;10.02;;;4.38;;
47555;SDS011;33291;46.222;26.460;2023-02-01T09:55:45;3.78;;;2.40;;
47555;SDS011;33291;46.222;26.460;2023-02-01T09:58:30;6.28;;;2.70;;
47555;SDS011;33291;46.222;26.460;2023-02-01T10:01:09;3.83;;;2.30;;
47555;SDS011;33291;46.222;26.460;2023-02-01T10:03:44;5.10;;;2.53;;
47555;SDS011;33291;46.222;26.460;2023-02-01T10:08:42;3.88;;;2.88;;
47555;SDS011;33291;46.222;26.460;2023-02-01T10:14:24;4.20;;;1.52;;
47555;SDS011;33291;46.222;26.460;2023-02-01T10:17:16;3.10;;;1.65;;
47555;SDS011;33291;46.222;26.460;2023-02-01T10:19:49;5.80;;;1.67;;
47555;SDS011;33291;46.222;26.460;2023-02-01T10:22:25;3.78;;;2.00;;
47555;SDS011;33291;46.222;26.460;2023-02-01T10:25:04;3.90;;;1.70;;
47555;SDS011;33291;46.222;26.460;2023-02-01T10:27:38;4.88;;;2.10;;
47555;SDS011;33291;46.222;26.460;2023-02-01T10:30:24;5.22;;;2.97;;
47555;SDS011;33291;46.222;26.460;2023-02-01T10:32:56;5.57;;;2.42;;
47555;SDS011;33291;46.222;26.460;2023-02-01T10:35:31;6.35;;;2.88;;
47555;SDS011;33291;46.222;26.460;2023-02-01T10:38:01;4.70;;;2.70;;
47555;SDS011;33291;46.222;26.460;2023-02-01T10:40:29;6.72;;;2.95;;
47555;SDS011;33291;46.222;26.460;2023-02-01T10:42:58;4.25;;;2.08;;
47555;SDS011;33291;46.222;26.460;2023-02-01T10:45:27;6.05;;;3.20;;
47555;SDS011;33291;46.222;26.460;2023-02-01T10:47:55;6.13;;;2.42;;
47555;SDS011;33291;46.222;26.460;2023-02-01T10:50:33;4.05;;;2.35;;
47555;SDS011;33291;46.222;26.460;2023-02-01T10:53:29;4.97;;;2.80;;
47555;SDS011;33291;46.222;26.460;2023-02-01T10:56:12;6.35;;;2.80;;
47555;SDS011;33291;46.222;26.460;2023-02-01T10:58:45;5.32;;;2.60;;
47555;SDS011;33291;46.222;26.460;2023-02-01T11:01:16;5.82;;;2.70;;
47555;SDS011;33291;46.222;26.460;2023-02-01T11:03:51;7.53;;;3.22;;
47555;SDS011;33291;46.222;26.460;2023-02-01T11:06:24;3.83;;;2.55;;
47555;SDS011;33291;46.222;26.460;2023-02-01T11:08:52;5.95;;;3.50;;
47555;SDS011;33291;46.222;26.460;2023-02-01T11:11:19;4.18;;;2.67;;
47555;SDS011;33291;46.222;26.460;2023-02-01T11:13:51;4.32;;;2.35;;
47555;SDS011;33291;46.222;26.460;2023-02-01T11:16:18;3.95;;;2.50;;
47555;SDS011;33291;46.222;26.460;2023-02-01T11:18:44;6.18;;;3.70;;
47555;SDS011;33291;46.222;26.460;2023-02-01T11:21:09;5.75;;;2.50;;
47555;SDS011;33291;46.222;26.460;2023-02-01T11:23:39;5.65;;;2.95;;
47555;SDS011;33291;46.222;26.460;2023-02-01T11:29:08;5.78;;;3.45;;
47555;SDS011;33291;46.222;26.460;2023-02-01T11:31:37;7.85;;;3.22;;
47555;SDS011;33291;46.222;26.460;2023-02-01T11:34:26;6.55;;;3.58;;
47555;SDS011;33291;46.222;26.460;2023-02-01T11:36:52;4.50;;;2.63;;
47555;SDS011;33291;46.222;26.460;2023-02-01T11:39:41;5.55;;;3.05;;
47555;SDS011;33291;46.222;26.460;2023-02-01T11:42:13;7.70;;;3.63;;
47555;SDS011;33291;46.222;26.460;2023-02-01T11:44:44;6.50;;;3.55;;
47555;SDS011;33291;46.222;26.460;2023-02-01T11:49:56;7.13;;;4.15;;
47555;SDS011;33291;46.222;26.460;2023-02-01T11:52:34;6.00;;;4.00;;
47555;SDS011;33291;46.222;26.460;2023-02-01T12:11:31;12.75;;;7.00;;
47555;SDS011;33291;46.222;26.460;2023-02-01T12:26:08;18.75;;;8.32;;
47555;SDS011;33291;46.222;26.460;2023-02-01T12:28:56;10.38;;;5.13;;
47555;SDS011;33291;46.222;26.460;2023-02-01T12:37:04;2.38;;;1.52;;
47555;SDS011;33291;46.222;26.460;2023-02-01T12:39:43;26.13;;;12.93;;
47555;SDS011;33291;46.222;26.460;2023-02-01T12:45:25;15.77;;;8.20;;
47555;SDS011;33291;46.222;26.460;2023-02-01T12:48:01;3.15;;;2.03;;
47555;SDS011;33291;46.222;26.460;2023-02-01T12:50:38;3.83;;;1.75;;
47555;SDS011;33291;46.222;26.460;2023-02-01T12:56:22;2.20;;;0.93;;
47555;SDS011;33291;46.222;26.460;2023-02-01T12:58:54;7.55;;;2.17;;
47555;SDS011;33291;46.222;26.460;2023-02-01T13:01:30;4.32;;;1.00;;
47555;SDS011;33291;46.222;26.460;2023-02-01T13:04:19;2.17;;;0.65;;
47555;SDS011;33291;46.222;26.460;2023-02-01T13:06:52;2.25;;;0.50;;
47555;SDS011;33291;46.222;26.460;2023-02-01T13:11:53;4.88;;;1.02;;
47555;SDS011;33291;46.222;26.460;2023-02-01T13:17:05;1.73;;;0.60;;
47555;SDS011;33291;46.222;26.460;2023-02-01T13:19:42;1.45;;;0.90;;
47555;SDS011;33291;46.222;26.460;2023-02-01T13:22:30;1.23;;;0.55;;
47555;SDS011;33291;46.222;26.460;2023-02-01T13:24:59;3.00;;;0.95;;
47555;SDS011;33291;46.222;26.460;2023-02-01T13:27:29;2.38;;;1.05;;
47555;SDS011;33291;46.222;26.460;2023-02-01T13:29:57;0.80;;;0.60;;
47555;SDS011;33291;46.222;26.460;2023-02-01T13:40:39;1.02;;;0.63;;
47555;SDS011;33291;46.222;26.460;2023-02-01T13:43:28;1.55;;;0.55;;
47555;SDS011;33291;46.222;26.460;2023-02-01T13:45:56;0.68;;;0.30;;
47555;SDS011;33291;46.222;26.460;2023-02-01T13:48:37;3.03;;;0.55;;
47555;SDS011;33291;46.222;26.460;2023-02-01T13:51:10;0.43;;;0.32;;
47555;SDS011;33291;46.222;26.460;2023-02-01T13:53:43;0.90;;;0.50;;
47555;SDS011;33291;46.222;26.460;2023-02-01T13:56:12;4.88;;;2.47;;
47555;SDS011;33291;46.222;26.460;2023-02-01T13:58:42;11.57;;;1.10;;
47555;SDS011;33291;46.222;26.460;2023-02-01T14:11:49;1.00;;;0.60;;
47555;SDS011;33291;46.222;26.460;2023-02-01T14:16:41;0.85;;;0.57;;
47555;SDS011;33291;46.222;26.460;2023-02-01T14:19:08;30.55;;;15.60;;
47555;SDS011;33291;46.222;26.460;2023-02-01T14:21:58;1.73;;;0.85;;
47555;SDS011;33291;46.222;26.460;2023-02-01T14:24:35;2.40;;;1.00;;
47555;SDS011;33291;46.222;26.460;2023-02-01T14:29:37;6.85;;;3.25;;
47555;SDS011;33291;46.222;26.460;2023-02-01T14:32:16;2.13;;;1.15;;
47555;SDS011;33291;46.222;26.460;2023-02-01T14:40:04;4.18;;;2.38;;
47555;SDS011;33291;46.222;26.460;2023-02-01T14:47:44;12.98;;;6.90;;
47555;SDS011;33291;46.222;26.460;2023-02-01T15:01:23;20.75;;;9.90;;
47555;SDS011;33291;46.222;26.460;2023-02-01T15:09:04;14.43;;;6.93;;
47555;SDS011;33291;46.222;26.460;2023-02-01T15:14:22;5.72;;;3.05;;
47555;SDS011;33291;46.222;26.460;2023-02-01T15:16:48;18.48;;;11.07;;
47555;SDS011;33291;46.222;26.460;2023-02-01T15:19:21;28.20;;;21.20;;
47555;SDS011;33291;46.222;26.460;2023-02-01T15:21:49;10.80;;;7.18;;
47555;SDS011;33291;46.222;26.460;2023-02-01T15:24:20;43.22;;;18.92;;
47555;SDS011;33291;46.222;26.460;2023-02-01T15:26:48;7.38;;;3.85;;
47555;SDS011;33291;46.222;26.460;2023-02-01T15:29:14;2.67;;;1.50;;
47555;SDS011;33291;46.222;26.460;2023-02-01T15:31:49;3.65;;;2.60;;
47555;SDS011;33291;46.222;26.460;2023-02-01T15:34:17;3.15;;;2.13;;
47555;SDS011;33291;46.222;26.460;2023-02-01T15:36:44;1.80;;;1.20;;
47555;SDS011;33291;46.222;26.460;2023-02-01T15:42:22;2.53;;;1.00;;
47555;SDS011;33291;46.222;26.460;2023-02-01T15:44:47;3.30;;;1.75;;
47555;SDS011;33291;46.222;26.460;2023-02-01T15:47:15;2.90;;;1.10;;
47555;SDS011;33291;46.222;26.460;2023-02-01T15:49:49;14.57;;;7.00;;
47555;SDS011;33291;46.222;26.460;2023-02-01T15:55:17;8.57;;;3.45;;
47555;SDS011;33291;46.222;26.460;2023-02-01T15:57:45;23.58;;;9.88;;
47555;SDS011;33291;46.222;26.460;2023-02-01T16:02:53;17.75;;;7.43;;
47555;SDS011;33291;46.222;26.460;2023-02-01T16:05:32;16.73;;;7.18;;
47555;SDS011;33291;46.222;26.460;2023-02-01T16:08:12;27.58;;;12.13;;
47555;SDS011;33291;46.222;26.460;2023-02-01T16:13:07;30.27;;;13.50;;
47555;SDS011;33291;46.222;26.460;2023-02-01T16:15:33;26.27;;;12.73;;
47555;SDS011;33291;46.222;26.460;2023-02-01T16:18:00;17.17;;;8.23;;
47555;SDS011;33291;46.222;26.460;2023-02-01T16:20:25;16.08;;;7.88;;
47555;SDS011;33291;46.222;26.460;2023-02-01T16:22:51;4.78;;;2.08;;
47555;SDS011;33291;46.222;26.460;2023-02-01T16:25:16;16.08;;;7.45;;
47555;SDS011;33291;46.222;26.460;2023-02-01T16:27:42;11.60;;;4.18;;
47555;SDS011;33291;46.222;26.460;2023-02-01T16:30:08;12.23;;;4.75;;
47555;SDS011;33291;46.222;26.460;2023-02-01T16:32:35;15.82;;;7.60;;
47555;SDS011;33291;46.222;26.460;2023-02-01T16:35:15;8.55;;;3.63;;
47555;SDS011;33291;46.222;26.460;2023-02-01T16:37:47;10.60;;;5.32;;
47555;SDS011;33291;46.222;26.460;2023-02-01T16:40:16;10.57;;;5.53;;
47555;SDS011;33291;46.222;26.460;2023-02-01T16:42:44;9.55;;;4.97;;
47555;SDS011;33291;46.222;26.460;2023-02-01T16:45:11;22.67;;;10.35;;
47555;SDS011;33291;46.222;26.460;2023-02-01T16:47:37;14.02;;;7.65;;
47555;SDS011;33291;46.222;26.460;2023-02-01T16:50:05;19.38;;;10.35;;
47555;SDS011;33291;46.222;26.460;2023-02-01T16:52:41;15.63;;;9.00;;
47555;SDS011;33291;46.222;26.460;2023-02-01T16:55:14;18.23;;;7.88;;
47555;SDS011;33291;46.222;26.460;2023-02-01T17:00:07;1.75;;;1.23;;
47555;SDS011;33291;46.222;26.460;2023-02-01T17:02:37;1.48;;;0.80;;
47555;SDS011;33291;46.222;26.460;2023-02-01T17:05:03;4.90;;;1.70;;
47555;SDS011;33291;46.222;26.460;2023-02-01T17:07:30;7.70;;;4.05;;
47555;SDS011;33291;46.222;26.460;2023-02-01T17:09:56;5.70;;;2.35;;
47555;SDS011;33291;46.222;26.460;2023-02-01T17:12:22;3.45;;;1.77;;
47555;SDS011;33291;46.222;26.460;2023-02-01T17:14:54;3.10;;;1.80;;
47555;SDS011;33291;46.222;26.460;2023-02-01T17:17:20;8.05;;;2.38;;
47555;SDS011;33291;46.222;26.460;2023-02-01T17:19:47;6.10;;;2.50;;
47555;SDS011;33291;46.222;26.460;2023-02-01T17:22:21;7.80;;;3.30;;
47555;SDS011;33291;46.222;26.460;2023-02-01T17:24:48;11.00;;;4.75;;
47555;SDS011;33291;46.222;26.460;2023-02-01T17:27:17;11.70;;;6.30;;
47555;SDS011;33291;46.222;26.460;2023-02-01T17:29:43;43.30;;;25.45;;
47555;SDS011;33291;46.222;26.460;2023-02-01T17:32:18;22.42;;;13.50;;
47555;SDS011;33291;46.222;26.460;2023-02-01T17:34:46;43.30;;;25.85;;
47555;SDS011;33291;46.222;26.460;2023-02-01T17:37:23;56.30;;;31.58;;
47555;SDS011;33291;46.222;26.460;2023-02-01T17:39:50;41.70;;;22.55;;
47555;SDS011;33291;46.222;26.460;2023-02-01T17:42:18;36.20;;;18.67;;
47555;SDS011;33291;46.222;26.460;2023-02-01T17:44:44;50.58;;;26.48;;
47555;SDS011;33291;46.222;26.460;2023-02-01T17:47:09;45.85;;;24.52;;